Nearby METAR Reports

 

KSJC - San Jose, California, USA
Distance from station: NE 9mi, 14km
Updated: Sat, 15-Jun-2019 8:53pm CDT
Mostly cloudy
Mostly cloudy
 Wind from NNW
Wind: NNW 16 mph , 26 km/h
Temperature: 63°F , 17°C
Dew Point: 55°F , 13°C
Humidity: 77%
Barometer: 29.93 inHg , 1013.5 hPa
Clouds: Mostly cloudy
Visibility: 10 miles , 16 km
Cloud details: Few Clouds 1600 ft
Partly cloudy 8000 ft
Mostly cloudy 12000 ft
2019/06/16 01:53 KSJC 160153Z 33014KT 10SM FEW016 SCT080 BKN120 17/13 A2993 RMK AO2 SLP133 T01720128 $
KNUQ - Moffett Nas/Mtn, California, USA
Distance from station: N 9mi, 14km
Updated: Sat, 15-Jun-2019 8:56pm CDT
Clear
Clear
 Wind from NNW
Wind: NNW 15 mph , 24 km/h
Temperature: 63°F , 17°C
Dew Point: 54°F , 12°C
Humidity: 73%
Barometer: 29.93 inHg , 1013.5 hPa
Clouds: Clear
Visibility: 10 miles , 16 km
2019/06/16 01:56 KNUQ 160156Z 34013KT 10SM CLR 17/12 A2993 RMK AO2 SLP139 T01670117
 
KPAO - Palo Alto, California, USA
Distance from station: NNW 14mi, 23km
Updated: Sat, 15-Jun-2019 8:47pm CDT
Mostly cloudy
Mostly cloudy
 Wind from NNW
Wind: NNW 15 mph , 24 km/h
Temperature: 61°F , 16°C
Dew Point: 54°F , 12°C
Humidity: 77%
Barometer: 29.93 inHg , 1013.5 hPa
Clouds: Mostly cloudy
Visibility: 10 miles , 16 km
Cloud details: Partly cloudy 3000 ft
Mostly cloudy 18000 ft
2019/06/16 01:47 KPAO 160147Z 34013KT 10SM SCT030 BKN180 16/12 A2993
KRHV - San Jose/Reid, California, USA
Distance from station: ENE 12mi, 19km
Updated: Sat, 15-Jun-2019 8:47pm CDT
Partly cloudy
Partly cloudy
 Wind from NW
Wind: NW 10 mph , 17 km/h
Temperature: 64°F , 18°C
Dew Point: 54°F , 12°C
Humidity: 68%
Barometer: 29.92 inHg , 1013.2 hPa
Clouds: Partly cloudy
Visibility: 10 miles , 16 km
Cloud details: Partly cloudy 12000 ft
2019/06/16 01:47 KRHV 160147Z 31009KT 10SM SCT120 18/12 A2992
 
KOAK - Oakland, California, USA
Distance from station: NNW 31mi, 50km
Updated: Sat, 15-Jun-2019 8:53pm CDT
Overcast
Overcast
 Wind from W
Wind: W 17 mph , 28 km/h
Temperature: 61°F , 16°C
Dew Point: 52°F , 11°C
Humidity: 72%
Barometer: 29.96 inHg , 1014.6 hPa
Clouds: Overcast
Visibility: 10 miles , 16 km
Cloud details: Overcast 1100 ft
2019/06/16 01:53 KOAK 160153Z 28015KT 10SM OVC011 16/11 A2996 RMK AO2 SLP145 T01560106
KSQL - San Carlos Airpo, California, USA
Distance from station: NW 21mi, 34km
Updated: Sat, 15-Jun-2019 8:47pm CDT
Mostly cloudy
Mostly cloudy
 Wind from WSW
Wind: WSW 16 mph , 26 km/h, Gust: 23 mph , 37 km/h
Temperature: 59°F , 15°C
Dew Point: 52°F , 11°C
Humidity: 77%
Barometer: 29.93 inHg , 1013.5 hPa
Clouds: Mostly cloudy
Visibility: 10 miles , 16 km
Cloud details: Few Clouds 1500 ft
Mostly cloudy 20000 ft
2019/06/16 01:47 KSQL 160147Z 25014G20KT 10SM FEW015 BKN200 15/11 A2993
 
KSFO - San Francisco, California, USA
Distance from station: NW 30mi, 49km
Updated: Sat, 15-Jun-2019 8:56pm CDT
Mostly cloudy
Mostly cloudy
 Wind from W
Wind: W 17 mph , 28 km/h
Temperature: 57°F , 14°C
Dew Point: 50°F , 10°C
Humidity: 77%
Barometer: 29.95 inHg , 1014.2 hPa
Clouds: Mostly cloudy
Visibility: 10 miles , 16 km
Cloud details: Few Clouds 700 ft
Mostly cloudy 1200 ft
2019/06/16 01:56 KSFO 160156Z 27015KT 10SM FEW007 BKN012 14/10 A2995 RMK AO2 SLP140 T01440100
KE16 - San Martin, California, USA
Distance from station: ESE 27mi, 43km
Updated: Thu, 30-May-2019 2:30pm CDT
NOT Current

 Wind from SE
Wind: SE 6 mph , 9 km/h
Temperature: 64°F , 18°C
Dew Point: 52°F , 11°C
Humidity: 64%
Barometer: 29.96 inHg , 1014.6 hPa
2019/05/30 19:30 KE16 301930Z AUTO 13005KT 18/11 A2996 RMK AO2 PWINO PNO
 
KWVI - Watsonville, California, USA
Distance from station: SSE 27mi, 44km
Updated: Sat, 15-Jun-2019 8:53pm CDT
Clear
Clear
 Wind from S
Wind: S 8 mph , 13 km/h
Temperature: 61°F , 16°C
Dew Point: 54°F , 12°C
Humidity: 77%
Barometer: 29.95 inHg , 1014.2 hPa
Clouds: Clear
Visibility: 10 miles , 16 km
2019/06/16 01:53 KWVI 160153Z AUTO 19007KT 10SM CLR 16/12 A2995 RMK AO2 SLP141 T01560117 $
KHAF - Half Moon Bay, California, USA
Distance from station: WNW 31mi, 50km
Updated: Sat, 15-Jun-2019 9:20pm CDT
Mist, Overcast
Mist, Overcast
 Wind from WNW
Wind: WNW 6 mph , 9 km/h
Temperature: 55°F , 13°C
Dew Point: 54°F , 12°C
Humidity: 94%
Barometer: 29.98 inHg , 1015.2 hPa
Summary: Mist
Clouds: Overcast
Visibility: 2 miles , 3 km
Cloud details: Mostly cloudy 600 ft
Overcast 1200 ft
2019/06/16 02:20 KHAF 160220Z AUTO 30005KT 2SM BR BKN006 OVC012 13/12 A2998 RMK AO2
 
KHWD - Hayward, California, USA
Distance from station: N 28mi, 44km
Updated: Sat, 15-Jun-2019 8:54pm CDT
Overcast
Overcast
 Wind from W
Wind: W 13 mph , 20 km/h
Temperature: 57°F , 14°C
Dew Point: 52°F , 11°C
Humidity: 82%
Barometer: 29.95 inHg , 1014.2 hPa
Clouds: Overcast
Visibility: 10 miles , 16 km
Cloud details: Overcast 1100 ft
2019/06/16 01:54 KHWD 160154Z 28011KT 10SM OVC011 14/11 A2995 RMK AO2 SLP150 T01440106
KLVK - Livermore, California, USA
Distance from station: NNE 31mi, 51km
Updated: Sat, 15-Jun-2019 8:53pm CDT
Clear
Clear
 Wind from WNW
Wind: WNW 20 mph , 31 km/h
Temperature: 61°F , 16°C
Dew Point: 52°F , 11°C
Humidity: 72%
Barometer: 29.90 inHg , 1012.5 hPa
Clouds: Clear
Visibility: 10 miles , 16 km
2019/06/16 01:53 KLVK 160153Z 29017KT 10SM CLR 16/11 A2990 RMK AO2 SLP125 T01560106